sensor_id;sensor_type;location;lat;lon;timestamp;pressure;altitude;pressure_sealevel;temperature
15062;BMP180;7630;50.306;8.566;2023-07-02T00:01:02;97137.00;;;17.80
15062;BMP180;7630;50.306;8.566;2023-07-02T00:05:03;97140.00;;;18.00
15062;BMP180;7630;50.306;8.566;2023-07-02T00:09:05;97142.00;;;18.70
15062;BMP180;7630;50.306;8.566;2023-07-02T00:13:06;97140.00;;;18.70
15062;BMP180;7630;50.306;8.566;2023-07-02T00:17:07;97137.00;;;19.00
15062;BMP180;7630;50.306;8.566;2023-07-02T00:21:08;97138.00;;;18.80
15062;BMP180;7630;50.306;8.566;2023-07-02T00:25:13;97142.00;;;18.40
15062;BMP180;7630;50.306;8.566;2023-07-02T00:29:14;97138.00;;;17.70
15062;BMP180;7630;50.306;8.566;2023-07-02T00:33:15;97130.00;;;18.00
15062;BMP180;7630;50.306;8.566;2023-07-02T00:37:16;97121.00;;;18.70
15062;BMP180;7630;50.306;8.566;2023-07-02T00:41:18;97131.00;;;18.60
15062;BMP180;7630;50.306;8.566;2023-07-02T00:45:19;97133.00;;;17.40
15062;BMP180;7630;50.306;8.566;2023-07-02T00:49:20;97156.00;;;17.30
15062;BMP180;7630;50.306;8.566;2023-07-02T00:53:21;97138.00;;;17.50
15062;BMP180;7630;50.306;8.566;2023-07-02T00:57:23;97126.00;;;17.10
15062;BMP180;7630;50.306;8.566;2023-07-02T01:01:27;97137.00;;;17.60
15062;BMP180;7630;50.306;8.566;2023-07-02T01:05:29;97133.00;;;17.50
15062;BMP180;7630;50.306;8.566;2023-07-02T01:09:32;97142.00;;;16.80
15062;BMP180;7630;50.306;8.566;2023-07-02T01:13:33;97144.00;;;18.00
15062;BMP180;7630;50.306;8.566;2023-07-02T01:17:34;97144.00;;;17.00
15062;BMP180;7630;50.306;8.566;2023-07-02T01:21:40;97134.00;;;17.40
15062;BMP180;7630;50.306;8.566;2023-07-02T01:25:42;97135.00;;;17.60
15062;BMP180;7630;50.306;8.566;2023-07-02T01:29:44;97133.00;;;16.60
15062;BMP180;7630;50.306;8.566;2023-07-02T01:33:47;97135.00;;;16.60
15062;BMP180;7630;50.306;8.566;2023-07-02T01:37:48;97133.00;;;17.00
15062;BMP180;7630;50.306;8.566;2023-07-02T01:41:54;97129.00;;;16.70
15062;BMP180;7630;50.306;8.566;2023-07-02T01:45:56;97136.00;;;17.10
15062;BMP180;7630;50.306;8.566;2023-07-02T01:49:59;97132.00;;;16.70
15062;BMP180;7630;50.306;8.566;2023-07-02T01:54:01;97131.00;;;16.80
15062;BMP180;7630;50.306;8.566;2023-07-02T01:58:02;97129.00;;;16.50
15062;BMP180;7630;50.306;8.566;2023-07-02T02:02:04;97128.00;;;16.80
15062;BMP180;7630;50.306;8.566;2023-07-02T02:06:05;97130.00;;;16.00
15062;BMP180;7630;50.306;8.566;2023-07-02T02:10:06;97127.00;;;16.80
15062;BMP180;7630;50.306;8.566;2023-07-02T02:14:09;97125.00;;;16.90
15062;BMP180;7630;50.306;8.566;2023-07-02T02:18:11;97133.00;;;17.10
15062;BMP180;7630;50.306;8.566;2023-07-02T02:22:12;97134.00;;;17.40
15062;BMP180;7630;50.306;8.566;2023-07-02T02:26:14;97143.00;;;17.50
15062;BMP180;7630;50.306;8.566;2023-07-02T02:30:15;97148.00;;;18.00
15062;BMP180;7630;50.306;8.566;2023-07-02T02:34:17;97149.00;;;18.30
15062;BMP180;7630;50.306;8.566;2023-07-02T02:38:18;97148.00;;;18.30
15062;BMP180;7630;50.306;8.566;2023-07-02T02:42:19;97160.00;;;18.00
15062;BMP180;7630;50.306;8.566;2023-07-02T02:46:21;97159.00;;;18.20
15062;BMP180;7630;50.306;8.566;2023-07-02T02:50:23;97167.00;;;17.90
15062;BMP180;7630;50.306;8.566;2023-07-02T02:54:25;97164.00;;;18.00
15062;BMP180;7630;50.306;8.566;2023-07-02T02:58:26;97165.00;;;17.70
15062;BMP180;7630;50.306;8.566;2023-07-02T03:02:28;97162.00;;;17.70
15062;BMP180;7630;50.306;8.566;2023-07-02T03:06:30;97170.00;;;17.60
15062;BMP180;7630;50.306;8.566;2023-07-02T03:10:31;97096.00;;;17.60
15062;BMP180;7630;50.306;8.566;2023-07-02T03:14:32;97179.00;;;17.00
15062;BMP180;7630;50.306;8.566;2023-07-02T03:18:34;97177.00;;;16.70
15062;BMP180;7630;50.306;8.566;2023-07-02T03:22:35;97183.00;;;16.60
15062;BMP180;7630;50.306;8.566;2023-07-02T03:26:36;97177.00;;;16.20
15062;BMP180;7630;50.306;8.566;2023-07-02T03:30:37;97177.00;;;16.90
15062;BMP180;7630;50.306;8.566;2023-07-02T03:34:39;97174.00;;;16.50
15062;BMP180;7630;50.306;8.566;2023-07-02T03:38:40;97175.00;;;16.80
15062;BMP180;7630;50.306;8.566;2023-07-02T03:42:43;97168.00;;;15.60
15062;BMP180;7630;50.306;8.566;2023-07-02T03:46:44;97175.00;;;15.80
15062;BMP180;7630;50.306;8.566;2023-07-02T03:50:45;97181.00;;;15.60
15062;BMP180;7630;50.306;8.566;2023-07-02T03:54:47;97190.00;;;15.30
15062;BMP180;7630;50.306;8.566;2023-07-02T03:58:48;97183.00;;;15.90
15062;BMP180;7630;50.306;8.566;2023-07-02T04:02:49;97198.00;;;15.30
15062;BMP180;7630;50.306;8.566;2023-07-02T04:06:50;97193.00;;;15.80
15062;BMP180;7630;50.306;8.566;2023-07-02T04:10:52;97123.00;;;17.00
15062;BMP180;7630;50.306;8.566;2023-07-02T04:14:53;97202.00;;;17.20
15062;BMP180;7630;50.306;8.566;2023-07-02T04:18:54;97200.00;;;16.80
15062;BMP180;7630;50.306;8.566;2023-07-02T04:22:55;97210.00;;;17.00
15062;BMP180;7630;50.306;8.566;2023-07-02T04:26:56;97210.00;;;17.90
15062;BMP180;7630;50.306;8.566;2023-07-02T04:30:59;97225.00;;;18.40
15062;BMP180;7630;50.306;8.566;2023-07-02T04:35:01;97232.00;;;18.60
15062;BMP180;7630;50.306;8.566;2023-07-02T04:39:02;97231.00;;;18.70
15062;BMP180;7630;50.306;8.566;2023-07-02T04:43:03;97242.00;;;18.60
15062;BMP180;7630;50.306;8.566;2023-07-02T04:47:05;97239.00;;;18.30
15062;BMP180;7630;50.306;8.566;2023-07-02T04:51:06;97242.00;;;18.90
15062;BMP180;7630;50.306;8.566;2023-07-02T04:55:07;97243.00;;;18.70
15062;BMP180;7630;50.306;8.566;2023-07-02T04:59:09;97240.00;;;19.00
15062;BMP180;7630;50.306;8.566;2023-07-02T05:03:10;97237.00;;;17.60
15062;BMP180;7630;50.306;8.566;2023-07-02T05:07:11;97247.00;;;18.00
15062;BMP180;7630;50.306;8.566;2023-07-02T05:11:12;97243.00;;;18.60
15062;BMP180;7630;50.306;8.566;2023-07-02T05:15:13;97248.00;;;18.80
15062;BMP180;7630;50.306;8.566;2023-07-02T05:19:15;97248.00;;;17.20
15062;BMP180;7630;50.306;8.566;2023-07-02T05:23:16;97269.00;;;16.70
15062;BMP180;7630;50.306;8.566;2023-07-02T05:27:17;97269.00;;;16.60
15062;BMP180;7630;50.306;8.566;2023-07-02T05:31:18;97258.00;;;16.40
15062;BMP180;7630;50.306;8.566;2023-07-02T05:35:20;97265.00;;;17.20
15062;BMP180;7630;50.306;8.566;2023-07-02T05:39:21;97258.00;;;17.20
15062;BMP180;7630;50.306;8.566;2023-07-02T05:43:23;97270.00;;;17.50
15062;BMP180;7630;50.306;8.566;2023-07-02T05:47:24;97265.00;;;17.20
15062;BMP180;7630;50.306;8.566;2023-07-02T05:51:27;97277.00;;;16.90
15062;BMP180;7630;50.306;8.566;2023-07-02T05:55:28;97284.00;;;17.70
15062;BMP180;7630;50.306;8.566;2023-07-02T05:59:29;97284.00;;;18.10
15062;BMP180;7630;50.306;8.566;2023-07-02T06:03:30;97293.00;;;18.40
15062;BMP180;7630;50.306;8.566;2023-07-02T06:07:31;97286.00;;;19.40
15062;BMP180;7630;50.306;8.566;2023-07-02T06:11:33;97300.00;;;18.60
15062;BMP180;7630;50.306;8.566;2023-07-02T06:15:34;97308.00;;;19.00
15062;BMP180;7630;50.306;8.566;2023-07-02T06:19:36;97311.00;;;19.70
15062;BMP180;7630;50.306;8.566;2023-07-02T06:23:43;97321.00;;;19.70
15062;BMP180;7630;50.306;8.566;2023-07-02T06:27:44;97311.00;;;19.10
15062;BMP180;7630;50.306;8.566;2023-07-02T06:31:45;97314.00;;;18.70
15062;BMP180;7630;50.306;8.566;2023-07-02T06:35:47;97314.00;;;18.80
15062;BMP180;7630;50.306;8.566;2023-07-02T06:39:48;97319.00;;;18.00
15062;BMP180;7630;50.306;8.566;2023-07-02T06:43:49;97315.00;;;18.70
15062;BMP180;7630;50.306;8.566;2023-07-02T06:47:50;97327.00;;;18.00
15062;BMP180;7630;50.306;8.566;2023-07-02T06:51:51;97335.00;;;18.00
15062;BMP180;7630;50.306;8.566;2023-07-02T06:55:52;97332.00;;;19.30
15062;BMP180;7630;50.306;8.566;2023-07-02T06:59:58;97334.00;;;18.40
15062;BMP180;7630;50.306;8.566;2023-07-02T07:04:00;97344.00;;;18.90
15062;BMP180;7630;50.306;8.566;2023-07-02T07:08:01;97343.00;;;19.10
15062;BMP180;7630;50.306;8.566;2023-07-02T07:12:03;97346.00;;;19.10
15062;BMP180;7630;50.306;8.566;2023-07-02T07:16:04;97347.00;;;19.40
15062;BMP180;7630;50.306;8.566;2023-07-02T07:20:06;97345.00;;;20.40
15062;BMP180;7630;50.306;8.566;2023-07-02T07:24:07;97362.00;;;20.50
15062;BMP180;7630;50.306;8.566;2023-07-02T07:28:08;97342.00;;;20.00
15062;BMP180;7630;50.306;8.566;2023-07-02T07:32:11;97350.00;;;19.70
15062;BMP180;7630;50.306;8.566;2023-07-02T07:36:12;97354.00;;;19.40
15062;BMP180;7630;50.306;8.566;2023-07-02T07:40:14;97356.00;;;19.30
15062;BMP180;7630;50.306;8.566;2023-07-02T07:44:15;97357.00;;;19.10
15062;BMP180;7630;50.306;8.566;2023-07-02T07:48:16;97358.00;;;20.00
15062;BMP180;7630;50.306;8.566;2023-07-02T07:52:17;97353.00;;;19.90
15062;BMP180;7630;50.306;8.566;2023-07-02T07:56:18;97360.00;;;20.00
15062;BMP180;7630;50.306;8.566;2023-07-02T08:00:20;97365.00;;;20.90
15062;BMP180;7630;50.306;8.566;2023-07-02T08:04:21;97368.00;;;21.30
15062;BMP180;7630;50.306;8.566;2023-07-02T08:08:22;97362.00;;;21.80
15062;BMP180;7630;50.306;8.566;2023-07-02T08:12:23;97367.00;;;21.80
15062;BMP180;7630;50.306;8.566;2023-07-02T08:16:24;97374.00;;;20.90
15062;BMP180;7630;50.306;8.566;2023-07-02T08:20:25;97376.00;;;20.80
15062;BMP180;7630;50.306;8.566;2023-07-02T08:24:26;97384.00;;;21.20
15062;BMP180;7630;50.306;8.566;2023-07-02T08:28:28;97385.00;;;20.40
15062;BMP180;7630;50.306;8.566;2023-07-02T08:32:29;97378.00;;;20.60
15062;BMP180;7630;50.306;8.566;2023-07-02T08:36:30;97383.00;;;20.80
15062;BMP180;7630;50.306;8.566;2023-07-02T08:40:31;97395.00;;;22.30
15062;BMP180;7630;50.306;8.566;2023-07-02T08:44:32;97387.00;;;21.50
15062;BMP180;7630;50.306;8.566;2023-07-02T08:48:34;97389.00;;;22.80
15062;BMP180;7630;50.306;8.566;2023-07-02T08:52:36;97394.00;;;22.00
15062;BMP180;7630;50.306;8.566;2023-07-02T08:56:38;97384.00;;;20.00
15062;BMP180;7630;50.306;8.566;2023-07-02T09:00:39;97393.00;;;21.80
15062;BMP180;7630;50.306;8.566;2023-07-02T09:04:40;97393.00;;;21.80
15062;BMP180;7630;50.306;8.566;2023-07-02T09:08:41;97407.00;;;22.00
15062;BMP180;7630;50.306;8.566;2023-07-02T09:12:43;97401.00;;;23.40
15062;BMP180;7630;50.306;8.566;2023-07-02T09:16:44;97398.00;;;22.60
15062;BMP180;7630;50.306;8.566;2023-07-02T09:20:45;97406.00;;;21.20
15062;BMP180;7630;50.306;8.566;2023-07-02T09:24:55;97422.00;;;23.00
15062;BMP180;7630;50.306;8.566;2023-07-02T09:29:02;97407.00;;;22.30
15062;BMP180;7630;50.306;8.566;2023-07-02T09:33:07;97408.00;;;23.80
15062;BMP180;7630;50.306;8.566;2023-07-02T09:37:09;97400.00;;;21.70
15062;BMP180;7630;50.306;8.566;2023-07-02T09:41:10;97398.00;;;22.40
15062;BMP180;7630;50.306;8.566;2023-07-02T09:45:12;97399.00;;;22.20
15062;BMP180;7630;50.306;8.566;2023-07-02T09:49:14;97400.00;;;22.70
15062;BMP180;7630;50.306;8.566;2023-07-02T09:53:17;97394.00;;;22.10
15062;BMP180;7630;50.306;8.566;2023-07-02T09:57:18;97403.00;;;22.60
15062;BMP180;7630;50.306;8.566;2023-07-02T10:01:19;97395.00;;;23.50
15062;BMP180;7630;50.306;8.566;2023-07-02T10:05:31;97399.00;;;23.30
15062;BMP180;7630;50.306;8.566;2023-07-02T10:09:44;97405.00;;;22.90
15062;BMP180;7630;50.306;8.566;2023-07-02T10:13:46;97399.00;;;23.70
15062;BMP180;7630;50.306;8.566;2023-07-02T10:17:57;97399.00;;;23.60
15062;BMP180;7630;50.306;8.566;2023-07-02T10:22:02;97408.00;;;22.70
15062;BMP180;7630;50.306;8.566;2023-07-02T10:26:13;97415.00;;;23.40
15062;BMP180;7630;50.306;8.566;2023-07-02T10:30:13;97407.00;;;22.00
15062;BMP180;7630;50.306;8.566;2023-07-02T10:34:14;97406.00;;;21.50
15062;BMP180;7630;50.306;8.566;2023-07-02T10:38:23;97394.00;;;22.40
15062;BMP180;7630;50.306;8.566;2023-07-02T10:42:26;97405.00;;;22.80
15062;BMP180;7630;50.306;8.566;2023-07-02T10:46:27;97404.00;;;23.40
15062;BMP180;7630;50.306;8.566;2023-07-02T10:50:30;97405.00;;;23.80
15062;BMP180;7630;50.306;8.566;2023-07-02T10:54:39;97408.00;;;22.70
15062;BMP180;7630;50.306;8.566;2023-07-02T10:58:42;97403.00;;;22.90
15062;BMP180;7630;50.306;8.566;2023-07-02T11:02:44;97410.00;;;22.60
15062;BMP180;7630;50.306;8.566;2023-07-02T11:06:47;97407.00;;;23.10
15062;BMP180;7630;50.306;8.566;2023-07-02T11:10:49;97414.00;;;23.30
15062;BMP180;7630;50.306;8.566;2023-07-02T11:14:50;97406.00;;;22.20
15062;BMP180;7630;50.306;8.566;2023-07-02T11:18:52;97399.00;;;23.30
15062;BMP180;7630;50.306;8.566;2023-07-02T11:22:54;97401.00;;;23.20
15062;BMP180;7630;50.306;8.566;2023-07-02T11:26:56;97404.00;;;23.40
15062;BMP180;7630;50.306;8.566;2023-07-02T11:30:58;97396.00;;;26.00
15062;BMP180;7630;50.306;8.566;2023-07-02T11:34:59;97396.00;;;24.70
15062;BMP180;7630;50.306;8.566;2023-07-02T11:39:01;97401.00;;;24.00
15062;BMP180;7630;50.306;8.566;2023-07-02T11:43:03;97397.00;;;24.30
15062;BMP180;7630;50.306;8.566;2023-07-02T11:47:05;97398.00;;;24.20
15062;BMP180;7630;50.306;8.566;2023-07-02T11:51:07;97409.00;;;23.60
15062;BMP180;7630;50.306;8.566;2023-07-02T11:55:08;97418.00;;;22.60
15062;BMP180;7630;50.306;8.566;2023-07-02T11:59:09;97410.00;;;22.70
15062;BMP180;7630;50.306;8.566;2023-07-02T12:03:11;97422.00;;;23.80
15062;BMP180;7630;50.306;8.566;2023-07-02T12:07:13;97409.00;;;25.00
15062;BMP180;7630;50.306;8.566;2023-07-02T12:11:14;97408.00;;;23.80
15062;BMP180;7630;50.306;8.566;2023-07-02T12:15:16;97417.00;;;22.70
15062;BMP180;7630;50.306;8.566;2023-07-02T12:19:17;97417.00;;;23.20
15062;BMP180;7630;50.306;8.566;2023-07-02T12:23:18;97425.00;;;23.50
15062;BMP180;7630;50.306;8.566;2023-07-02T12:27:20;97425.00;;;23.60
15062;BMP180;7630;50.306;8.566;2023-07-02T12:31:21;97425.00;;;23.10
15062;BMP180;7630;50.306;8.566;2023-07-02T12:35:22;97430.00;;;23.40
15062;BMP180;7630;50.306;8.566;2023-07-02T12:39:23;97427.00;;;25.30
15062;BMP180;7630;50.306;8.566;2023-07-02T12:43:25;97418.00;;;26.90
15062;BMP180;7630;50.306;8.566;2023-07-02T12:47:26;97423.00;;;25.80
15062;BMP180;7630;50.306;8.566;2023-07-02T12:51:27;97414.00;;;25.40
15062;BMP180;7630;50.306;8.566;2023-07-02T12:55:28;97434.00;;;26.20
15062;BMP180;7630;50.306;8.566;2023-07-02T12:59:30;97428.00;;;25.80
15062;BMP180;7630;50.306;8.566;2023-07-02T13:03:31;97422.00;;;25.20
15062;BMP180;7630;50.306;8.566;2023-07-02T13:07:32;97437.00;;;24.40
15062;BMP180;7630;50.306;8.566;2023-07-02T13:11:34;97435.00;;;24.10
15062;BMP180;7630;50.306;8.566;2023-07-02T13:15:35;97431.00;;;23.00
15062;BMP180;7630;50.306;8.566;2023-07-02T13:19:36;97439.00;;;25.10
15062;BMP180;7630;50.306;8.566;2023-07-02T13:23:37;97436.00;;;25.30
15062;BMP180;7630;50.306;8.566;2023-07-02T13:27:38;97446.00;;;23.90
15062;BMP180;7630;50.306;8.566;2023-07-02T13:31:40;97448.00;;;24.30
15062;BMP180;7630;50.306;8.566;2023-07-02T13:35:41;97445.00;;;25.80
15062;BMP180;7630;50.306;8.566;2023-07-02T13:39:46;97445.00;;;26.60
15062;BMP180;7630;50.306;8.566;2023-07-02T13:43:48;97445.00;;;25.80
15062;BMP180;7630;50.306;8.566;2023-07-02T13:47:49;97462.00;;;25.10
15062;BMP180;7630;50.306;8.566;2023-07-02T13:51:50;97456.00;;;24.40
15062;BMP180;7630;50.306;8.566;2023-07-02T13:55:52;97455.00;;;24.70
15062;BMP180;7630;50.306;8.566;2023-07-02T13:59:53;97451.00;;;24.10
15062;BMP180;7630;50.306;8.566;2023-07-02T14:03:56;97450.00;;;24.20
15062;BMP180;7630;50.306;8.566;2023-07-02T14:07:57;97448.00;;;24.20
15062;BMP180;7630;50.306;8.566;2023-07-02T14:11:59;97451.00;;;24.20
15062;BMP180;7630;50.306;8.566;2023-07-02T14:16:01;97455.00;;;24.40
15062;BMP180;7630;50.306;8.566;2023-07-02T14:20:04;97458.00;;;24.80
15062;BMP180;7630;50.306;8.566;2023-07-02T14:24:08;97454.00;;;24.00
15062;BMP180;7630;50.306;8.566;2023-07-02T14:28:10;97452.00;;;24.40
15062;BMP180;7630;50.306;8.566;2023-07-02T14:32:11;97455.00;;;24.00
15062;BMP180;7630;50.306;8.566;2023-07-02T14:36:12;97452.00;;;24.10
15062;BMP180;7630;50.306;8.566;2023-07-02T14:40:13;97438.00;;;23.10
15062;BMP180;7630;50.306;8.566;2023-07-02T14:44:15;97456.00;;;23.60
15062;BMP180;7630;50.306;8.566;2023-07-02T14:48:16;97446.00;;;22.90
15062;BMP180;7630;50.306;8.566;2023-07-02T14:52:17;97477.00;;;25.60
15062;BMP180;7630;50.306;8.566;2023-07-02T14:56:20;97447.00;;;25.30
15062;BMP180;7630;50.306;8.566;2023-07-02T15:00:21;97441.00;;;25.40
15062;BMP180;7630;50.306;8.566;2023-07-02T15:04:22;97452.00;;;24.80
15062;BMP180;7630;50.306;8.566;2023-07-02T15:08:24;97445.00;;;24.90
15062;BMP180;7630;50.306;8.566;2023-07-02T15:12:25;97447.00;;;25.00
15062;BMP180;7630;50.306;8.566;2023-07-02T15:16:26;97447.00;;;24.90
15062;BMP180;7630;50.306;8.566;2023-07-02T15:20:27;97448.00;;;23.30
15062;BMP180;7630;50.306;8.566;2023-07-02T15:24:29;97445.00;;;24.50
15062;BMP180;7630;50.306;8.566;2023-07-02T15:28:30;97442.00;;;25.10
15062;BMP180;7630;50.306;8.566;2023-07-02T15:32:31;97443.00;;;25.70
15062;BMP180;7630;50.306;8.566;2023-07-02T15:36:32;97434.00;;;24.90
15062;BMP180;7630;50.306;8.566;2023-07-02T15:40:35;97443.00;;;24.50
15062;BMP180;7630;50.306;8.566;2023-07-02T15:44:36;97440.00;;;24.30
15062;BMP180;7630;50.306;8.566;2023-07-02T15:48:39;97438.00;;;24.70
15062;BMP180;7630;50.306;8.566;2023-07-02T15:52:40;97440.00;;;24.10
15062;BMP180;7630;50.306;8.566;2023-07-02T15:56:41;97441.00;;;24.40
15062;BMP180;7630;50.306;8.566;2023-07-02T16:00:42;97432.00;;;24.50
15062;BMP180;7630;50.306;8.566;2023-07-02T16:04:43;97437.00;;;24.40
15062;BMP180;7630;50.306;8.566;2023-07-02T16:08:46;97444.00;;;23.90
15062;BMP180;7630;50.306;8.566;2023-07-02T16:12:48;97445.00;;;24.20
15062;BMP180;7630;50.306;8.566;2023-07-02T16:16:50;97441.00;;;24.20
15062;BMP180;7630;50.306;8.566;2023-07-02T16:20:58;97437.00;;;24.50
15062;BMP180;7630;50.306;8.566;2023-07-02T16:24:59;97436.00;;;24.20
15062;BMP180;7630;50.306;8.566;2023-07-02T16:29:00;97323.00;;;23.70
15062;BMP180;7630;50.306;8.566;2023-07-02T16:33:01;97429.00;;;23.60
15062;BMP180;7630;50.306;8.566;2023-07-02T16:37:03;97432.00;;;23.50
15062;BMP180;7630;50.306;8.566;2023-07-02T16:41:05;97423.00;;;24.30
15062;BMP180;7630;50.306;8.566;2023-07-02T16:45:07;97424.00;;;24.40
15062;BMP180;7630;50.306;8.566;2023-07-02T16:49:08;97423.00;;;23.90
15062;BMP180;7630;50.306;8.566;2023-07-02T16:53:09;97431.00;;;23.70
15062;BMP180;7630;50.306;8.566;2023-07-02T16:57:10;97436.00;;;23.40
15062;BMP180;7630;50.306;8.566;2023-07-02T17:01:11;97431.00;;;24.30
15062;BMP180;7630;50.306;8.566;2023-07-02T17:05:13;97435.00;;;23.60
15062;BMP180;7630;50.306;8.566;2023-07-02T17:09:26;97435.00;;;23.40
15062;BMP180;7630;50.306;8.566;2023-07-02T17:13:26;97434.00;;;23.20
15062;BMP180;7630;50.306;8.566;2023-07-02T17:17:27;97429.00;;;23.60
15062;BMP180;7630;50.306;8.566;2023-07-02T17:21:29;97430.00;;;23.50
15062;BMP180;7630;50.306;8.566;2023-07-02T17:25:30;97421.00;;;23.10
15062;BMP180;7630;50.306;8.566;2023-07-02T17:29:31;97428.00;;;22.80
15062;BMP180;7630;50.306;8.566;2023-07-02T17:33:32;97418.00;;;22.40
15062;BMP180;7630;50.306;8.566;2023-07-02T17:37:33;97430.00;;;22.80
15062;BMP180;7630;50.306;8.566;2023-07-02T17:41:37;97416.00;;;22.40
15062;BMP180;7630;50.306;8.566;2023-07-02T17:45:38;97423.00;;;22.60
15062;BMP180;7630;50.306;8.566;2023-07-02T17:49:40;97431.00;;;24.00
15062;BMP180;7630;50.306;8.566;2023-07-02T17:53:42;97432.00;;;23.00
15062;BMP180;7630;50.306;8.566;2023-07-02T17:57:43;97421.00;;;22.70
15062;BMP180;7630;50.306;8.566;2023-07-02T18:01:47;97421.00;;;22.10
15062;BMP180;7630;50.306;8.566;2023-07-02T18:05:50;97429.00;;;22.60
15062;BMP180;7630;50.306;8.566;2023-07-02T18:09:53;97423.00;;;23.50
15062;BMP180;7630;50.306;8.566;2023-07-02T18:13:54;97417.00;;;23.70
15062;BMP180;7630;50.306;8.566;2023-07-02T18:17:55;97424.00;;;23.50
15062;BMP180;7630;50.306;8.566;2023-07-02T18:21:56;97431.00;;;23.40
15062;BMP180;7630;50.306;8.566;2023-07-02T18:25:59;97420.00;;;23.70
15062;BMP180;7630;50.306;8.566;2023-07-02T18:30:03;97424.00;;;23.50
15062;BMP180;7630;50.306;8.566;2023-07-02T18:34:04;97429.00;;;23.90
15062;BMP180;7630;50.306;8.566;2023-07-02T18:38:05;97419.00;;;24.00
15062;BMP180;7630;50.306;8.566;2023-07-02T18:42:09;97429.00;;;24.70
15062;BMP180;7630;50.306;8.566;2023-07-02T18:46:11;97426.00;;;24.70
15062;BMP180;7630;50.306;8.566;2023-07-02T18:50:12;97435.00;;;24.60
15062;BMP180;7630;50.306;8.566;2023-07-02T18:54:14;97429.00;;;24.70
15062;BMP180;7630;50.306;8.566;2023-07-02T18:58:15;97424.00;;;24.50
15062;BMP180;7630;50.306;8.566;2023-07-02T19:02:16;97424.00;;;24.30
15062;BMP180;7630;50.306;8.566;2023-07-02T19:06:17;97424.00;;;24.20
15062;BMP180;7630;50.306;8.566;2023-07-02T19:10:18;97427.00;;;23.70
15062;BMP180;7630;50.306;8.566;2023-07-02T19:14:20;97436.00;;;23.80
15062;BMP180;7630;50.306;8.566;2023-07-02T19:22:45;97429.00;;;23.90
15062;BMP180;7630;50.306;8.566;2023-07-02T19:26:46;97431.00;;;23.80
15062;BMP180;7630;50.306;8.566;2023-07-02T19:30:50;97432.00;;;23.80
15062;BMP180;7630;50.306;8.566;2023-07-02T19:34:56;97439.00;;;23.40
15062;BMP180;7630;50.306;8.566;2023-07-02T19:38:58;97433.00;;;23.10
15062;BMP180;7630;50.306;8.566;2023-07-02T19:42:59;97439.00;;;23.10
15062;BMP180;7630;50.306;8.566;2023-07-02T19:47:00;97445.00;;;23.00
15062;BMP180;7630;50.306;8.566;2023-07-02T19:51:03;97443.00;;;22.80
15062;BMP180;7630;50.306;8.566;2023-07-02T19:55:08;97451.00;;;22.20
15062;BMP180;7630;50.306;8.566;2023-07-02T19:59:11;97455.00;;;22.00
15062;BMP180;7630;50.306;8.566;2023-07-02T20:03:12;97453.00;;;21.20
15062;BMP180;7630;50.306;8.566;2023-07-02T20:07:14;97454.00;;;21.60
15062;BMP180;7630;50.306;8.566;2023-07-02T20:11:18;97459.00;;;21.40
15062;BMP180;7630;50.306;8.566;2023-07-02T20:15:20;97456.00;;;20.90
15062;BMP180;7630;50.306;8.566;2023-07-02T20:19:21;97455.00;;;21.20
15062;BMP180;7630;50.306;8.566;2023-07-02T20:23:24;97452.00;;;21.00
15062;BMP180;7630;50.306;8.566;2023-07-02T20:27:25;97454.00;;;20.70
15062;BMP180;7630;50.306;8.566;2023-07-02T20:31:27;97458.00;;;20.70
15062;BMP180;7630;50.306;8.566;2023-07-02T20:35:28;97459.00;;;20.60
15062;BMP180;7630;50.306;8.566;2023-07-02T20:39:29;97455.00;;;20.50
15062;BMP180;7630;50.306;8.566;2023-07-02T20:43:31;97457.00;;;20.60
15062;BMP180;7630;50.306;8.566;2023-07-02T20:47:34;97454.00;;;20.60
15062;BMP180;7630;50.306;8.566;2023-07-02T20:51:36;97462.00;;;20.70
15062;BMP180;7630;50.306;8.566;2023-07-02T20:55:39;97465.00;;;20.60
15062;BMP180;7630;50.306;8.566;2023-07-02T20:59:41;97467.00;;;20.00
15062;BMP180;7630;50.306;8.566;2023-07-02T21:03:44;97460.00;;;20.10
15062;BMP180;7630;50.306;8.566;2023-07-02T21:07:45;97462.00;;;20.10
15062;BMP180;7630;50.306;8.566;2023-07-02T21:11:47;97467.00;;;20.10
15062;BMP180;7630;50.306;8.566;2023-07-02T21:15:56;97476.00;;;20.20
15062;BMP180;7630;50.306;8.566;2023-07-02T21:19:57;97475.00;;;19.60
15062;BMP180;7630;50.306;8.566;2023-07-02T21:23:58;97475.00;;;20.10
15062;BMP180;7630;50.306;8.566;2023-07-02T21:27:59;97483.00;;;19.70
15062;BMP180;7630;50.306;8.566;2023-07-02T21:32:01;97488.00;;;19.40
15062;BMP180;7630;50.306;8.566;2023-07-02T21:36:03;97486.00;;;19.80
15062;BMP180;7630;50.306;8.566;2023-07-02T21:40:08;97491.00;;;19.90
15062;BMP180;7630;50.306;8.566;2023-07-02T21:44:09;97489.00;;;19.80
15062;BMP180;7630;50.306;8.566;2023-07-02T21:48:10;97490.00;;;20.10
15062;BMP180;7630;50.306;8.566;2023-07-02T21:52:11;97492.00;;;19.50
15062;BMP180;7630;50.306;8.566;2023-07-02T21:56:12;97490.00;;;20.00
15062;BMP180;7630;50.306;8.566;2023-07-02T22:00:14;97497.00;;;19.70
15062;BMP180;7630;50.306;8.566;2023-07-02T22:04:15;97493.00;;;19.80
15062;BMP180;7630;50.306;8.566;2023-07-02T22:08:16;97495.00;;;20.00
15062;BMP180;7630;50.306;8.566;2023-07-02T22:12:17;97488.00;;;20.10
15062;BMP180;7630;50.306;8.566;2023-07-02T22:16:18;97486.00;;;19.20
15062;BMP180;7630;50.306;8.566;2023-07-02T22:20:20;97494.00;;;19.70
15062;BMP180;7630;50.306;8.566;2023-07-02T22:24:22;97483.00;;;19.20
15062;BMP180;7630;50.306;8.566;2023-07-02T22:28:23;97491.00;;;19.40
15062;BMP180;7630;50.306;8.566;2023-07-02T22:32:24;97491.00;;;19.20
15062;BMP180;7630;50.306;8.566;2023-07-02T22:36:25;97483.00;;;19.00
15062;BMP180;7630;50.306;8.566;2023-07-02T22:40:26;97476.00;;;19.50
15062;BMP180;7630;50.306;8.566;2023-07-02T22:44:28;97478.00;;;19.10
15062;BMP180;7630;50.306;8.566;2023-07-02T22:48:30;97473.00;;;19.40
15062;BMP180;7630;50.306;8.566;2023-07-02T22:52:31;97467.00;;;19.80
15062;BMP180;7630;50.306;8.566;2023-07-02T22:56:34;97462.00;;;19.50
15062;BMP180;7630;50.306;8.566;2023-07-02T23:00:36;97461.00;;;18.60
15062;BMP180;7630;50.306;8.566;2023-07-02T23:04:37;97466.00;;;19.10
15062;BMP180;7630;50.306;8.566;2023-07-02T23:08:38;97467.00;;;18.50
15062;BMP180;7630;50.306;8.566;2023-07-02T23:12:41;97463.00;;;18.60
15062;BMP180;7630;50.306;8.566;2023-07-02T23:16:43;97462.00;;;18.90
15062;BMP180;7630;50.306;8.566;2023-07-02T23:20:44;97450.00;;;19.00
15062;BMP180;7630;50.306;8.566;2023-07-02T23:24:46;97453.00;;;18.90
15062;BMP180;7630;50.306;8.566;2023-07-02T23:28:48;97455.00;;;18.70
15062;BMP180;7630;50.306;8.566;2023-07-02T23:32:55;97447.00;;;18.50
15062;BMP180;7630;50.306;8.566;2023-07-02T23:36:56;97442.00;;;18.80